Flight Track Log - Related Links

Times and Time Zones

All times are in EDT time to prevent confusion due to time zone crossing. See the ASQ5740 flight status page for this flight to view local times or setup timezone preferences in your user account.

Time Position Orientation Groundspeed Altitude Reporting Facility
EDT Latitude Longitude Course Direction KTS MPH feet Rate Location/Type
Wed 03:53:19 PM 35.0228 -82.1011 41° Northeast 252 290 6,800  Level Atlanta Center
Wed 03:54:19 PM 35.0800 -82.0286 46° Northeast 279 321 9,200 2,150 Climbing Atlanta Center
Wed 03:55:19 PM 35.1436 -81.9533 44° Northeast 304 350 11,100 1,550 Climbing Atlanta Center
Wed 03:56:00 PM 35.4033 -81.6608 68° East  Level Estimated
Wed 03:56:19 PM 35.2392 -81.9408 North 318 366 12,300  Level Atlanta Center
Wed 03:57:19 PM 35.3278 -81.8775 30° Northeast 331 381 13,900 1,550 Climbing Atlanta Center
Wed 03:58:19 PM 35.3756 -81.7514 65° Northeast 358 412 15,400 1,450 Climbing Atlanta Center
Wed 03:59:19 PM 35.4233 -81.6253 65° Northeast 371 427 16,800 1,300 Climbing Atlanta Center
Wed 04:00:19 PM 35.4708 -81.4989 65° Northeast 402 463 18,000 1,250 Climbing Atlanta Center
Wed 04:01:19 PM 35.5203 -81.3697 65° Northeast 413 475 19,300 950 Climbing Atlanta Center
Wed 04:02:19 PM 35.5694 -81.2381 65° Northeast 413 475 19,900 950 Climbing Atlanta Center
Wed 04:03:19 PM 35.6225 -81.1008 65° Northeast 433 498 21,200 1,150 Climbing Atlanta Center
Wed 04:04:19 PM 35.6756 -80.9658 64° Northeast 433 498 22,200 850 Climbing Atlanta Center
Wed 04:05:19 PM 35.7264 -80.8283 65° Northeast 433 498 22,900 700 Climbing Atlanta Center
Wed 04:06:19 PM 35.7811 -80.6881 64° Northeast 433 498 23,600 700 Climbing Atlanta Center
Wed 04:07:19 PM 35.8333 -80.5425 66° East 447 514 24,300 667 Climbing Atlanta Center
Wed 04:09:28 PM 35.9419 -80.2564 65° Northeast 463 533 25,700 632 Climbing Washington Center
Wed 04:10:29 PM 35.9933 -80.1131 66° East 463 533 26,300 504 Climbing Washington Center
Wed 04:11:27 PM 36.0508 -79.9722 63° Northeast 456 525 26,700 454 Climbing Washington Center
Wed 04:12:28 PM 36.1244 -79.8428 55° Northeast 451 519 27,200 545 Climbing Washington Center
Wed 04:13:28 PM 36.2000 -79.7053 56° Northeast 476 548 27,800 559 Climbing Washington Center
Wed 04:14:26 PM 36.2822 -79.5600 55° Northeast 476 548 28,300 458 Climbing Washington Center
Wed 04:15:26 PM 36.3422 -79.4522 55° Northeast 476 548 28,700 350 Climbing Washington Center
Wed 04:16:26 PM 36.4286 -79.2914 56° Northeast 476 548 29,000 148 Climbing Washington Center
Wed 04:17:28 PM 36.4989 -79.1706 54° Northeast 476 548 29,000 -443 Level Washington Center
Wed 04:18:28 PM 36.5781 -79.0372 53° Northeast 476 548 28,100 -1,322 Descending Washington Center
Wed 04:19:26 PM 36.6528 -78.9006 56° Northeast 476 548 26,400 -1,563 Descending Washington Center
Wed 04:20:27 PM 36.7342 -78.7486 56° Northeast 476 548 25,000 -689 Descending Washington Center
Wed 04:21:28 PM 36.8206 -78.6328 47° Northeast 469 540 25,000 -50 Level Washington Center
Wed 04:22:26 PM 36.9192 -78.5250 41° Northeast 463 533 24,900  Descending Washington Center
Wed 04:23:27 PM 37.0258 -78.4353 34° Northeast 457 526 25,000 49 Climbing Washington Center
Wed 04:24:28 PM 37.1236 -78.3531 34° Northeast 464 534 25,000 -99 Level Washington Center
Wed 04:25:28 PM 37.2319 -78.2631 33° Northeast 464 534 24,800 -610 Descending Washington Center
Wed 04:26:26 PM 37.3425 -78.1703 34° Northeast 469 540 23,800 -1,008 Descending Washington Center
Wed 04:27:27 PM 37.4508 -78.0744 35° Northeast 474 545 22,800 -992 Descending Washington Center
Wed 04:28:27 PM 37.5614 -77.9836 33° Northeast 474 545 21,800 -1,000 Descending Washington Center
Wed 04:29:27 PM 37.6694 -77.8875 35° Northeast 474 545 20,800 -1,339 Descending Washington Center
Wed 04:30:28 PM 37.7775 -77.7989 33° Northeast 469 540 19,100 -2,067 Descending Washington Center
Wed 04:31:26 PM 37.8731 -77.7122 36° Northeast 454 522 16,700 2,975 Descending Washington Center
Wed 04:32:27 PM 37.9703 -77.6278 34° Northeast 429 494 25,000 -2,380 Climbing Washington Center
Wed 04:33:27 PM 38.0739 -77.5436 33° Northeast 417 480 11,900 -7,438 Descending Washington Center
Wed 04:34:28 PM 38.1586 -77.4667 36° Northeast 395 455 10,000 -1,210 Descending Washington Center
Wed 04:35:26 PM 38.2325 -77.4156 29° Northeast 346 398 9,500 -1,068 Descending Washington Center
Wed 04:36:26 PM 38.3081 -77.3725 24° Northeast 305 351 7,900 -1,537 Descending Washington Center
Wed 04:37:27 PM 38.3789 -77.3769 357° North 264 304 6,400 -1,488 Descending Washington Center
Wed 04:38:27 PM 38.4364 -77.4444 317° Northwest 245 282 4,900 -1,190 Descending Washington Center
Wed 04:39:28 PM 38.5047 -77.4700 344° North 251 289 4,000 -550 Descending Washington Center
Wed 04:40:27 PM 38.5778 -77.4692 North 251 289 3,800 -588 Descending Washington Center
Wed 04:41:10 PM 38.6333 -77.4667 North 263 303 3,000 -466 Descending Potomac TRACON
Wed 04:42:10 PM 38.7000 -77.4667 360° North 256 295 3,000  Level Potomac TRACON
Wed 04:43:10 PM 38.7833 -77.4667 360° North 249 287 3,000 -209 Level Potomac TRACON
Wed 04:44:05 PM 38.8333 -77.4667 360° North 201 231 2,600 -744 Descending Potomac TRACON
Wed 04:45:11 PM 38.8833 -77.4667 360° North 169 194 1,500 -900 Descending Potomac TRACON
Wed 04:46:05 PM 38.9167 -77.4667 360° North 145 167 800 -778 Descending Potomac TRACON
Wed 04:48:00 PM 38.9333 -77.4500 15° North  Level FlightAware Approximate
Wed 04:55:00 PM 38.9474 -77.4599 15° North  Level Estimated

Login

Don't have an account? Register now (free) for customized features, flight alerts, and more!